createdAt,value
2022-09-23T00:01:48.817Z,1.40
2022-09-23T00:04:34.833Z,1.52
2022-09-23T00:07:01.830Z,1.65
2022-09-23T00:09:28.856Z,1.50
2022-09-23T00:11:55.812Z,1.40
2022-09-23T00:14:22.818Z,1.50
2022-09-23T00:16:49.863Z,1.42
2022-09-23T00:19:16.930Z,1.55
2022-09-23T00:21:44.054Z,1.30
2022-09-23T00:24:11.082Z,1.60
2022-09-23T00:26:38.069Z,1.35
2022-09-23T00:29:05.115Z,1.50
2022-09-23T00:31:32.083Z,1.60
2022-09-23T00:34:00.636Z,1.40
2022-09-23T00:36:28.265Z,1.45
2022-09-23T00:38:55.713Z,1.40
2022-09-23T00:41:23.130Z,1.42
2022-09-23T00:43:53.455Z,1.40
2022-09-23T00:49:00.517Z,1.58
2022-09-23T00:51:33.500Z,1.40
2022-09-23T00:54:01.846Z,1.40
2022-09-23T00:56:29.841Z,1.40
2022-09-23T00:58:56.995Z,1.40
2022-09-23T01:01:25.274Z,1.40
2022-09-23T01:03:52.763Z,1.40
2022-09-23T01:06:20.456Z,1.48
2022-09-23T01:08:47.949Z,1.38
2022-09-23T01:14:13.581Z,1.50
2022-09-23T01:16:45.098Z,1.40
2022-09-23T01:19:21.248Z,1.42
2022-09-23T01:27:27.895Z,1.35
2022-09-23T01:32:56.968Z,1.38
2022-09-23T01:38:29.910Z,1.40
2022-09-23T01:40:59.932Z,1.33
2022-09-23T01:43:33.933Z,1.30
2022-09-23T01:46:02.068Z,1.60
2022-09-23T01:48:36.141Z,1.30
2022-09-23T01:51:06.841Z,1.30
2022-09-23T01:53:39.763Z,1.40
2022-09-23T01:56:10.761Z,1.37
2022-09-23T01:58:42.053Z,1.25
2022-09-23T02:01:12.710Z,1.30
2022-09-23T02:03:44.798Z,1.23
2022-09-23T02:06:14.108Z,1.40
2022-09-23T02:08:44.711Z,1.50
2022-09-23T02:11:15.276Z,1.35
2022-09-23T02:13:46.181Z,1.40
2022-09-23T02:16:16.979Z,1.40
2022-09-23T02:18:48.139Z,1.33
2022-09-23T02:21:16.018Z,1.42
2022-09-23T02:23:44.630Z,1.40
2022-09-23T02:29:12.143Z,1.30
2022-09-23T02:34:25.147Z,1.20
2022-09-23T02:37:12.129Z,1.30
2022-09-23T02:39:45.064Z,1.42
2022-09-23T02:42:14.794Z,1.42
2022-09-23T02:44:42.633Z,1.30
2022-09-23T02:47:10.583Z,1.40
2022-09-23T02:49:37.707Z,1.40
2022-09-23T02:52:07.681Z,1.40
2022-09-23T02:54:35.409Z,1.45
2022-09-23T02:57:05.383Z,1.33
2022-09-23T02:59:33.101Z,1.30
2022-09-23T03:04:47.315Z,1.35
2022-09-23T03:07:17.992Z,1.35
2022-09-23T03:09:53.469Z,1.30
2022-09-23T03:12:32.215Z,1.33
2022-09-23T03:15:02.885Z,1.50
2022-09-23T03:17:34.127Z,1.30
2022-09-23T03:20:05.340Z,1.40
2022-09-23T03:22:34.356Z,1.33
2022-09-23T03:25:07.081Z,1.20
2022-09-23T03:27:35.641Z,1.27
2022-09-23T03:30:03.592Z,1.40
2022-09-23T03:32:32.065Z,1.40
2022-09-23T03:35:01.554Z,1.35
2022-09-23T03:37:34.826Z,1.30
2022-09-23T03:40:21.935Z,1.20
2022-09-23T03:42:49.100Z,1.30
2022-09-23T03:45:18.479Z,1.40
2022-09-23T03:47:45.769Z,1.30
2022-09-23T03:50:13.773Z,1.30
2022-09-23T03:52:40.988Z,1.20
2022-09-23T03:55:08.471Z,1.30
2022-09-23T03:57:35.566Z,1.40
2022-09-23T04:00:03.276Z,1.45
2022-09-23T04:02:30.341Z,1.23
2022-09-23T04:04:57.393Z,1.30
2022-09-23T04:07:25.443Z,1.35
2022-09-23T04:09:52.713Z,1.20
2022-09-23T04:12:19.733Z,1.40
2022-09-23T04:14:46.756Z,1.38
2022-09-23T04:17:14.000Z,1.35
2022-09-23T04:19:41.099Z,1.23
2022-09-23T04:22:09.779Z,1.25
2022-09-23T04:24:36.902Z,1.23
2022-09-23T04:27:04.071Z,1.35
2022-09-23T04:29:31.199Z,1.30
2022-09-23T04:31:58.300Z,1.30
2022-09-23T04:34:25.435Z,1.30
2022-09-23T04:36:52.538Z,1.27
2022-09-23T04:39:19.696Z,1.30
2022-09-23T04:41:47.280Z,1.30
2022-09-23T04:44:14.497Z,1.23
2022-09-23T04:46:42.642Z,1.33
2022-09-23T04:49:10.182Z,1.20
2022-09-23T04:51:37.274Z,1.30
2022-09-23T04:54:04.368Z,1.23
2022-09-23T04:56:32.756Z,1.30
2022-09-23T04:59:01.529Z,1.25
2022-09-23T05:01:30.514Z,1.20
2022-09-23T05:04:03.351Z,1.30
2022-09-23T05:06:31.483Z,1.40
2022-09-23T05:08:59.430Z,1.27
2022-09-23T05:11:27.136Z,1.30
2022-09-23T05:13:55.354Z,1.50
2022-09-23T05:16:27.176Z,1.30
2022-09-23T05:18:54.633Z,1.20
2022-09-23T05:21:23.825Z,1.20
2022-09-23T05:23:55.503Z,1.27
2022-09-23T05:26:25.196Z,1.17
2022-09-23T05:28:52.482Z,1.37
2022-09-23T05:31:20.968Z,1.50
2022-09-23T05:33:49.178Z,1.30
2022-09-23T05:36:18.533Z,1.30
2022-09-23T05:38:45.947Z,1.33
2022-09-23T05:41:13.918Z,1.25
2022-09-23T05:43:41.589Z,1.13
2022-09-23T05:46:14.007Z,1.30
2022-09-23T05:48:41.913Z,1.50
2022-09-23T05:54:31.591Z,1.23
2022-09-23T05:57:01.408Z,1.20
2022-09-23T05:59:31.312Z,1.13
2022-09-23T06:01:59.219Z,1.40
2022-09-23T06:04:26.355Z,1.30
2022-09-23T06:10:16.449Z,1.40
2022-09-23T06:12:44.968Z,1.40
2022-09-23T06:15:12.217Z,1.20
2022-09-23T06:17:39.268Z,1.50
2022-09-23T06:20:06.499Z,1.30
2022-09-23T06:26:08.142Z,1.40
2022-09-23T06:28:36.528Z,1.30
2022-09-23T06:31:09.629Z,1.33
2022-09-23T06:33:39.710Z,1.50
2022-09-23T06:36:07.645Z,1.70
2022-09-23T06:38:35.117Z,1.42
2022-09-23T06:41:03.418Z,1.50
2022-09-23T06:43:30.834Z,1.50
2022-09-23T06:45:59.119Z,1.30
2022-09-23T06:48:28.072Z,1.50
2022-09-23T06:50:59.359Z,1.33
2022-09-23T06:53:26.580Z,1.48
2022-09-23T06:56:02.511Z,1.50
2022-09-23T06:58:30.230Z,1.43
2022-09-23T07:01:01.803Z,1.52
2022-09-23T07:03:29.237Z,1.50
2022-09-23T07:05:56.519Z,1.58
2022-09-23T07:08:23.950Z,1.30
2022-09-23T07:10:54.942Z,1.73
2022-09-23T07:13:22.007Z,1.50
2022-09-23T07:15:51.768Z,1.85
2022-09-23T07:18:19.413Z,1.63
2022-09-23T07:20:46.579Z,1.60
2022-09-23T07:23:13.603Z,1.50
2022-09-23T07:25:40.667Z,1.77
2022-09-23T07:28:07.807Z,1.92
2022-09-23T07:30:41.164Z,1.80
2022-09-23T07:33:32.200Z,1.83
2022-09-23T07:35:59.976Z,1.67
2022-09-23T07:38:29.881Z,1.70
2022-09-23T07:41:03.815Z,1.80
2022-09-23T07:43:32.333Z,1.70
2022-09-23T07:46:00.501Z,1.60
2022-09-23T07:48:31.952Z,1.80
2022-09-23T07:51:01.746Z,1.83
2022-09-23T07:53:29.396Z,1.63
2022-09-23T07:55:57.408Z,1.83
2022-09-23T07:58:24.797Z,1.85
2022-09-23T08:00:53.955Z,1.98
2022-09-23T08:03:21.447Z,1.85
2022-09-23T08:05:49.052Z,1.70
2022-09-23T08:08:17.207Z,1.92
2022-09-23T08:10:44.741Z,1.77
2022-09-23T08:13:12.187Z,1.83
2022-09-23T08:15:40.494Z,1.80
2022-09-23T08:18:07.564Z,1.70
2022-09-23T08:20:50.197Z,1.92
2022-09-23T08:23:18.328Z,1.65
2022-09-23T08:25:47.186Z,1.88
2022-09-23T08:28:18.432Z,1.83
2022-09-23T08:30:46.285Z,1.98
2022-09-23T08:33:13.509Z,1.90
2022-09-23T08:35:41.040Z,1.80
2022-09-23T08:38:08.709Z,1.75
2022-09-23T08:40:41.011Z,2.05
2022-09-23T08:43:08.837Z,1.90
2022-09-23T08:45:38.058Z,1.60
2022-09-23T08:50:49.925Z,1.90
2022-09-23T08:53:24.636Z,1.70
2022-09-23T08:55:53.425Z,1.90
2022-09-23T09:03:54.203Z,1.90
2022-09-23T09:06:27.702Z,1.50
2022-09-23T09:08:57.023Z,1.50
2022-09-23T09:11:31.443Z,1.60
2022-09-23T09:14:16.553Z,1.65
2022-09-23T09:17:02.447Z,1.65
2022-09-23T09:19:51.922Z,1.50
2022-09-23T09:22:28.938Z,1.60
2022-09-23T09:24:59.384Z,1.70
2022-09-23T09:27:26.768Z,1.63
2022-09-23T09:29:55.407Z,1.80
2022-09-23T09:35:21.030Z,1.58
2022-09-23T09:37:48.576Z,1.77
2022-09-23T09:40:17.349Z,1.67
2022-09-23T09:42:47.558Z,1.63
2022-09-23T09:45:25.061Z,1.70
2022-09-23T09:50:52.296Z,1.70
2022-09-23T09:58:41.627Z,1.40
2022-09-23T10:01:09.325Z,1.48
2022-09-23T10:03:40.442Z,1.27
2022-09-23T10:06:24.764Z,1.20
2022-09-23T10:09:11.829Z,1.23
2022-09-23T10:11:42.759Z,1.27
2022-09-23T10:14:19.010Z,1.10
2022-09-23T10:16:48.918Z,0.90
2022-09-23T10:22:28.733Z,1.10
2022-09-23T10:24:58.171Z,1.40
2022-09-23T10:27:27.680Z,0.90
2022-09-23T10:29:57.340Z,0.90
2022-09-23T10:32:29.600Z,0.80
2022-09-23T10:34:57.157Z,1.10
2022-09-23T10:37:29.812Z,1.10
2022-09-23T10:40:19.980Z,0.90
2022-09-23T10:43:27.326Z,0.80
2022-09-23T10:46:17.668Z,0.77
2022-09-23T10:48:53.871Z,0.70
2022-09-23T10:51:27.395Z,0.75
2022-09-23T10:54:01.809Z,0.90
2022-09-23T10:56:29.802Z,0.80
2022-09-23T11:06:41.706Z,0.77
2022-09-23T11:09:14.429Z,0.70
2022-09-23T11:11:49.415Z,0.70
2022-09-23T11:14:17.124Z,0.80
2022-09-23T11:20:10.423Z,0.60
2022-09-23T11:22:43.798Z,0.70
2022-09-23T11:25:20.915Z,0.60
2022-09-23T11:27:51.135Z,0.60
2022-09-23T11:30:20.910Z,0.70
2022-09-23T11:33:08.094Z,0.60
2022-09-23T11:35:38.587Z,0.60
2022-09-23T11:38:08.709Z,0.57
2022-09-23T11:40:43.882Z,0.90
2022-09-23T11:43:18.593Z,0.90
2022-09-23T11:45:55.188Z,1.05
2022-09-23T11:48:26.832Z,1.03
2022-09-23T11:50:57.231Z,1.02
2022-09-23T11:53:24.424Z,1.00
2022-09-23T11:55:58.401Z,1.20
2022-09-23T11:58:32.163Z,0.80
2022-09-23T12:01:02.018Z,1.00
2022-09-23T12:03:48.246Z,0.80
2022-09-23T12:06:20.311Z,0.90
2022-09-23T12:08:47.940Z,1.08
2022-09-23T12:11:17.355Z,0.73
2022-09-23T12:14:04.250Z,0.80
2022-09-23T12:16:39.577Z,0.75
2022-09-23T12:19:28.067Z,0.63
2022-09-23T12:22:01.406Z,0.60
2022-09-23T12:24:41.688Z,0.63
2022-09-23T12:27:19.013Z,0.80
2022-09-23T12:29:46.859Z,0.77
2022-09-23T12:32:18.395Z,0.60
2022-09-23T12:34:48.985Z,0.70
2022-09-23T12:37:23.905Z,0.70
2022-09-23T12:39:50.967Z,0.80
2022-09-23T12:42:20.095Z,0.60
2022-09-23T12:44:48.514Z,0.70
2022-09-23T12:47:31.087Z,0.80
2022-09-23T12:49:58.227Z,0.83
2022-09-23T12:52:26.483Z,0.85
2022-09-23T12:54:57.774Z,0.90
2022-09-23T12:57:41.529Z,1.10
2022-09-23T13:00:12.036Z,1.95
2022-09-23T13:02:40.930Z,2.38
2022-09-23T13:05:28.864Z,2.10
2022-09-23T13:08:00.910Z,1.95
2022-09-23T13:10:40.206Z,1.90
2022-09-23T13:13:10.929Z,1.58
2022-09-23T13:15:38.448Z,1.75
2022-09-23T13:18:20.961Z,1.60
2022-09-23T13:20:49.074Z,1.80
2022-09-23T13:23:32.022Z,1.60
2022-09-23T13:26:01.430Z,1.50
2022-09-23T13:28:30.355Z,1.80
2022-09-23T13:30:58.357Z,1.70
2022-09-23T13:33:38.941Z,1.90
2022-09-23T13:36:10.962Z,1.58
2022-09-23T13:38:37.880Z,1.85
2022-09-23T13:41:11.193Z,1.67
2022-09-23T13:43:43.120Z,2.10
2022-09-23T13:46:13.944Z,2.10
